sensor_id;sensor_type;location;lat;lon;timestamp;pressure;altitude;pressure_sealevel;temperature;humidity
42105;BME280;68365;51.472;5.712;2023-04-01T00:00:58;98966.78;;;15.67;100.00
42105;BME280;68365;51.472;5.712;2023-04-01T00:03:24;98959.38;;;15.64;100.00
42105;BME280;68365;51.472;5.712;2023-04-01T00:05:53;98977.25;;;15.67;100.00
42105;BME280;68365;51.472;5.712;2023-04-01T00:08:19;98964.94;;;15.68;100.00
42105;BME280;68365;51.472;5.712;2023-04-01T00:10:45;98968.34;;;15.68;100.00
42105;BME280;68365;51.472;5.712;2023-04-01T00:13:11;98968.84;;;15.65;100.00
42105;BME280;68365;51.472;5.712;2023-04-01T00:15:37;98975.63;;;15.66;100.00
42105;BME280;68365;51.472;5.712;2023-04-01T00:18:03;98971.44;;;15.65;100.00
42105;BME280;68365;51.472;5.712;2023-04-01T00:20:30;98979.06;;;15.67;100.00
42105;BME280;68365;51.472;5.712;2023-04-01T00:22:56;98974.06;;;15.65;100.00
42105;BME280;68365;51.472;5.712;2023-04-01T00:25:23;98973.28;;;15.65;100.00
42105;BME280;68365;51.472;5.712;2023-04-01T00:27:49;98966.94;;;15.61;100.00
42105;BME280;68365;51.472;5.712;2023-04-01T00:30:16;98973.72;;;15.62;100.00
42105;BME280;68365;51.472;5.712;2023-04-01T00:32:43;98960.88;;;15.60;100.00
42105;BME280;68365;51.472;5.712;2023-04-01T00:35:09;98970.34;;;15.61;100.00
42105;BME280;68365;51.472;5.712;2023-04-01T00:37:37;98970.66;;;15.65;100.00
42105;BME280;68365;51.472;5.712;2023-04-01T00:40:05;98977.69;;;15.64;100.00
42105;BME280;68365;51.472;5.712;2023-04-01T00:42:32;98977.69;;;15.64;100.00
42105;BME280;68365;51.472;5.712;2023-04-01T00:44:58;98972.94;;;15.61;100.00
42105;BME280;68365;51.472;5.712;2023-04-01T00:47:44;98971.13;;;15.62;100.00
42105;BME280;68365;51.472;5.712;2023-04-01T00:50:10;98970.91;;;15.63;100.00
42105;BME280;68365;51.472;5.712;2023-04-01T00:52:36;98974.53;;;15.62;100.00
42105;BME280;68365;51.472;5.712;2023-04-01T00:55:05;98976.34;;;15.62;100.00
42105;BME280;68365;51.472;5.712;2023-04-01T00:57:35;98989.44;;;15.62;100.00
42105;BME280;68365;51.472;5.712;2023-04-01T01:00:06;98990.47;;;15.61;100.00
42105;BME280;68365;51.472;5.712;2023-04-01T01:02:35;99000.94;;;15.61;100.00
42105;BME280;68365;51.472;5.712;2023-04-01T01:05:01;98992.03;;;15.62;100.00
42105;BME280;68365;51.472;5.712;2023-04-01T01:07:57;98994.66;;;15.62;100.00
42105;BME280;68365;51.472;5.712;2023-04-01T01:10:34;98993.09;;;15.61;100.00
42105;BME280;68365;51.472;5.712;2023-04-01T01:13:20;98995.13;;;15.59;100.00
42105;BME280;68365;51.472;5.712;2023-04-01T01:16:10;99008.78;;;15.61;100.00
42105;BME280;68365;51.472;5.712;2023-04-01T01:19:03;99007.16;;;15.60;100.00
42105;BME280;68365;51.472;5.712;2023-04-01T01:25:41;99008.44;;;15.57;100.00
42105;BME280;68365;51.472;5.712;2023-04-01T01:33:55;99017.84;;;15.58;100.00
42105;BME280;68365;51.472;5.712;2023-04-01T01:36:29;99011.06;;;15.57;100.00
42105;BME280;68365;51.472;5.712;2023-04-01T01:39:00;99013.13;;;15.55;100.00
42105;BME280;68365;51.472;5.712;2023-04-01T01:41:27;99007.53;;;15.52;100.00
42105;BME280;68365;51.472;5.712;2023-04-01T01:43:56;99009.94;;;15.53;100.00
42105;BME280;68365;51.472;5.712;2023-04-01T01:46:26;99009.72;;;15.55;100.00
42105;BME280;68365;51.472;5.712;2023-04-01T01:48:55;99011.50;;;15.54;100.00
42105;BME280;68365;51.472;5.712;2023-04-01T01:51:22;99012.00;;;15.51;100.00
42105;BME280;68365;51.472;5.712;2023-04-01T01:53:49;99011.75;;;15.53;100.00
42105;BME280;68365;51.472;5.712;2023-04-01T01:56:18;99009.16;;;15.53;100.00
42105;BME280;68365;51.472;5.712;2023-04-01T01:58:49;99023.00;;;15.53;100.00
42105;BME280;68365;51.472;5.712;2023-04-01T02:01:24;99017.22;;;15.51;100.00
42105;BME280;68365;51.472;5.712;2023-04-01T02:03:52;99014.94;;;15.55;100.00
42105;BME280;68365;51.472;5.712;2023-04-01T02:06:22;99019.84;;;15.51;100.00
42105;BME280;68365;51.472;5.712;2023-04-01T02:08:55;99019.28;;;15.49;100.00
42105;BME280;68365;51.472;5.712;2023-04-01T02:11:42;99033.00;;;15.56;100.00
42105;BME280;68365;51.472;5.712;2023-04-01T02:14:15;99037.66;;;15.54;100.00
42105;BME280;68365;51.472;5.712;2023-04-01T02:17:09;99037.91;;;15.53;100.00
42105;BME280;68365;51.472;5.712;2023-04-01T02:19:51;99038.94;;;15.52;100.00
42105;BME280;68365;51.472;5.712;2023-04-01T02:22:26;99049.16;;;15.53;100.00
42105;BME280;68365;51.472;5.712;2023-04-01T02:24:58;99051.78;;;15.53;100.00
42105;BME280;68365;51.472;5.712;2023-04-01T02:27:25;99037.56;;;15.49;100.00
42105;BME280;68365;51.472;5.712;2023-04-01T02:29:52;99036.78;;;15.48;100.00
42105;BME280;68365;51.472;5.712;2023-04-01T02:32:19;99045.66;;;15.47;100.00
42105;BME280;68365;51.472;5.712;2023-04-01T02:34:47;99048.59;;;15.51;100.00
42105;BME280;68365;51.472;5.712;2023-04-01T02:37:14;99057.22;;;15.52;100.00
42105;BME280;68365;51.472;5.712;2023-04-01T02:39:40;99047.25;;;15.48;100.00
42105;BME280;68365;51.472;5.712;2023-04-01T02:42:08;99046.22;;;15.49;100.00
42105;BME280;68365;51.472;5.712;2023-04-01T02:44:34;99060.63;;;15.52;100.00
42105;BME280;68365;51.472;5.712;2023-04-01T02:47:00;99048.25;;;15.47;100.00
42105;BME280;68365;51.472;5.712;2023-04-01T02:49:26;99060.88;;;15.51;100.00
42105;BME280;68365;51.472;5.712;2023-04-01T02:51:52;99064.50;;;15.49;100.00
42105;BME280;68365;51.472;5.712;2023-04-01T02:54:19;99057.16;;;15.46;100.00
42105;BME280;68365;51.472;5.712;2023-04-01T02:56:45;99056.59;;;15.44;100.00
42105;BME280;68365;51.472;5.712;2023-04-01T02:59:11;99061.56;;;15.46;100.00
42105;BME280;68365;51.472;5.712;2023-04-01T03:01:37;99056.91;;;15.48;100.00
42105;BME280;68365;51.472;5.712;2023-04-01T03:04:03;99056.03;;;15.42;100.00
42105;BME280;68365;51.472;5.712;2023-04-01T03:06:30;99068.41;;;15.47;100.00
42105;BME280;68365;51.472;5.712;2023-04-01T03:08:56;99067.34;;;15.48;100.00
42105;BME280;68365;51.472;5.712;2023-04-01T03:11:21;99067.13;;;15.49;100.00
42105;BME280;68365;51.472;5.712;2023-04-01T03:13:47;99066.56;;;15.47;100.00
42105;BME280;68365;51.472;5.712;2023-04-01T03:16:14;99071.22;;;15.45;100.00
42105;BME280;68365;51.472;5.712;2023-04-01T03:18:40;99069.41;;;15.46;100.00
42105;BME280;68365;51.472;5.712;2023-04-01T03:21:22;99074.63;;;15.46;100.00
42105;BME280;68365;51.472;5.712;2023-04-01T03:23:49;99075.69;;;15.45;100.00
42105;BME280;68365;51.472;5.712;2023-04-01T03:26:15;99083.28;;;15.46;100.00
42105;BME280;68365;51.472;5.712;2023-04-01T03:28:42;99073.63;;;15.47;100.00
42105;BME280;68365;51.472;5.712;2023-04-01T03:31:08;99082.72;;;15.44;100.00
42105;BME280;68365;51.472;5.712;2023-04-01T03:33:34;99081.47;;;15.47;100.00
42105;BME280;68365;51.472;5.712;2023-04-01T03:35:59;99087.97;;;15.44;100.00
42105;BME280;68365;51.472;5.712;2023-04-01T03:38:26;99086.13;;;15.45;100.00
42105;BME280;68365;51.472;5.712;2023-04-01T03:40:51;99090.56;;;15.44;100.00
42105;BME280;68365;51.472;5.712;2023-04-01T03:43:17;99090.56;;;15.44;100.00
42105;BME280;68365;51.472;5.712;2023-04-01T03:45:45;99088.19;;;15.43;100.00
42105;BME280;68365;51.472;5.712;2023-04-01T03:48:11;99093.19;;;15.44;100.00
42105;BME280;68365;51.472;5.712;2023-04-01T03:50:36;99089.44;;;15.40;100.00
42105;BME280;68365;51.472;5.712;2023-04-01T03:53:02;99091.03;;;15.41;100.00
42105;BME280;68365;51.472;5.712;2023-04-01T03:55:28;99092.38;;;15.44;100.00
42105;BME280;68365;51.472;5.712;2023-04-01T03:57:54;99093.41;;;15.43;100.00
42105;BME280;68365;51.472;5.712;2023-04-01T04:00:20;99098.88;;;15.41;100.00
42105;BME280;68365;51.472;5.712;2023-04-01T04:02:46;99099.66;;;15.42;100.00
42105;BME280;68365;51.472;5.712;2023-04-01T04:05:11;99095.00;;;15.44;100.00
42105;BME280;68365;51.472;5.712;2023-04-01T04:07:39;99091.50;;;15.38;100.00
42105;BME280;68365;51.472;5.712;2023-04-01T04:10:06;99098.88;;;15.41;100.00
42105;BME280;68365;51.472;5.712;2023-04-01T04:12:31;99096.25;;;15.41;100.00
42105;BME280;68365;51.472;5.712;2023-04-01T04:14:57;99100.91;;;15.39;100.00
42105;BME280;68365;51.472;5.712;2023-04-01T04:17:23;99104.09;;;15.41;100.00
42105;BME280;68365;51.472;5.712;2023-04-01T04:19:49;99107.75;;;15.40;100.00
42105;BME280;68365;51.472;5.712;2023-04-01T04:22:15;99114.00;;;15.39;100.00
42105;BME280;68365;51.472;5.712;2023-04-01T04:24:41;99112.97;;;15.40;100.00
42105;BME280;68365;51.472;5.712;2023-04-01T04:27:06;99107.97;;;15.39;100.00
42105;BME280;68365;51.472;5.712;2023-04-01T04:29:32;99109.25;;;15.36;100.00
42105;BME280;68365;51.472;5.712;2023-04-01T04:31:58;99115.81;;;15.39;100.00
42105;BME280;68365;51.472;5.712;2023-04-01T04:34:24;99116.03;;;15.37;100.00
42105;BME280;68365;51.472;5.712;2023-04-01T04:36:50;99115.03;;;15.38;100.00
42105;BME280;68365;51.472;5.712;2023-04-01T04:39:16;99118.44;;;15.39;100.00
42105;BME280;68365;51.472;5.712;2023-04-01T04:41:42;99116.03;;;15.37;100.00
42105;BME280;68365;51.472;5.712;2023-04-01T04:44:07;99126.28;;;15.39;100.00
42105;BME280;68365;51.472;5.712;2023-04-01T04:46:33;99125.25;;;15.40;100.00
42105;BME280;68365;51.472;5.712;2023-04-01T04:48:59;99133.06;;;15.40;100.00
42105;BME280;68365;51.472;5.712;2023-04-01T04:51:25;99133.91;;;15.40;100.00
42105;BME280;68365;51.472;5.712;2023-04-01T04:53:51;99135.69;;;15.40;100.00
42105;BME280;68365;51.472;5.712;2023-04-01T04:56:19;99146.16;;;15.40;100.00
42105;BME280;68365;51.472;5.712;2023-04-01T04:58:45;99151.63;;;15.38;100.00
42105;BME280;68365;51.472;5.712;2023-04-01T05:01:14;99146.06;;;15.35;100.00
42105;BME280;68365;51.472;5.712;2023-04-01T05:03:40;99149.25;;;15.37;100.00
42105;BME280;68365;51.472;5.712;2023-04-01T05:06:08;99148.19;;;15.38;100.00
42105;BME280;68365;51.472;5.712;2023-04-01T05:08:34;99155.47;;;15.36;100.00
42105;BME280;68365;51.472;5.712;2023-04-01T05:11:01;99159.69;;;15.37;100.00
42105;BME280;68365;51.472;5.712;2023-04-01T05:13:28;99159.56;;;15.32;100.00
42105;BME280;68365;51.472;5.712;2023-04-01T05:15:54;99150.38;;;15.29;100.00
42105;BME280;68365;51.472;5.712;2023-04-01T05:18:21;99157.78;;;15.32;100.00
42105;BME280;68365;51.472;5.712;2023-04-01T05:20:53;99164.34;;;15.35;100.00
42105;BME280;68365;51.472;5.712;2023-04-01T05:23:20;99161.53;;;15.36;100.00
42105;BME280;68365;51.472;5.712;2023-04-01T05:25:49;99165.94;;;15.36;100.00
42105;BME280;68365;51.472;5.712;2023-04-01T05:28:17;99168.34;;;15.37;100.00
42105;BME280;68365;51.472;5.712;2023-04-01T05:30:43;99182.66;;;15.35;100.00
42105;BME280;68365;51.472;5.712;2023-04-01T05:33:11;99178.00;;;15.37;100.00
42105;BME280;68365;51.472;5.712;2023-04-01T05:35:37;99178.44;;;15.34;100.00
42105;BME280;68365;51.472;5.712;2023-04-01T05:38:04;99185.50;;;15.33;100.00
42105;BME280;68365;51.472;5.712;2023-04-01T05:40:30;99184.22;;;15.36;100.00
42105;BME280;68365;51.472;5.712;2023-04-01T05:42:56;99187.31;;;15.33;100.00
42105;BME280;68365;51.472;5.712;2023-04-01T05:45:23;99194.38;;;15.32;100.00
42105;BME280;68365;51.472;5.712;2023-04-01T05:47:49;99198.56;;;15.33;100.00
42105;BME280;68365;51.472;5.712;2023-04-01T05:50:15;99198.00;;;15.31;100.00
42105;BME280;68365;51.472;5.712;2023-04-01T05:52:41;99198.34;;;15.35;100.00
42105;BME280;68365;51.472;5.712;2023-04-01T05:55:07;99210.63;;;15.34;100.00
42105;BME280;68365;51.472;5.712;2023-04-01T05:57:33;99196.75;;;15.34;100.00
42105;BME280;68365;51.472;5.712;2023-04-01T05:59:59;99208.47;;;15.31;100.00
42105;BME280;68365;51.472;5.712;2023-04-01T06:02:25;99216.66;;;15.35;100.00
42105;BME280;68365;51.472;5.712;2023-04-01T06:05:03;99220.28;;;15.34;100.00
42105;BME280;68365;51.472;5.712;2023-04-01T06:07:29;99216.06;;;15.33;100.00
42105;BME280;68365;51.472;5.712;2023-04-01T06:09:55;99222.88;;;15.34;100.00
42105;BME280;68365;51.472;5.712;2023-04-01T06:48:51;99274.84;;;15.30;100.00
42105;BME280;68365;51.472;5.712;2023-04-01T06:54:09;99275.41;;;15.32;100.00
42105;BME280;68365;51.472;5.712;2023-04-01T06:56:38;99283.34;;;15.25;100.00
42105;BME280;68365;51.472;5.712;2023-04-01T06:59:31;99292.13;;;15.31;100.00
42105;BME280;68365;51.472;5.712;2023-04-01T07:04:40;99290.53;;;15.30;100.00
42105;BME280;68365;51.472;5.712;2023-04-01T07:07:33;99303.59;;;15.30;100.00
42105;BME280;68365;51.472;5.712;2023-04-01T07:10:09;99300.75;;;15.32;100.00
42105;BME280;68365;51.472;5.712;2023-04-01T07:12:56;99312.34;;;15.36;100.00
42105;BME280;68365;51.472;5.712;2023-04-01T07:15:35;99302.13;;;15.34;100.00
42105;BME280;68365;51.472;5.712;2023-04-01T07:18:52;99316.78;;;15.35;100.00
42105;BME280;68365;51.472;5.712;2023-04-01T07:21:28;99316.09;;;15.40;100.00
42105;BME280;68365;51.472;5.712;2023-04-01T07:24:00;99318.97;;;15.38;100.00
42105;BME280;68365;51.472;5.712;2023-04-01T07:26:27;99323.94;;;15.40;100.00
42105;BME280;68365;51.472;5.712;2023-04-01T07:28:53;99332.38;;;15.42;100.00
42105;BME280;68365;51.472;5.712;2023-04-01T07:34:19;99328.38;;;15.39;100.00
42105;BME280;68365;51.472;5.712;2023-04-01T07:37:14;99338.63;;;15.41;100.00
42105;BME280;68365;51.472;5.712;2023-04-01T07:48:54;99353.63;;;15.45;100.00
42105;BME280;68365;51.472;5.712;2023-04-01T08:00:08;99368.06;;;15.48;100.00
42105;BME280;68365;51.472;5.712;2023-04-01T08:03:09;99377.97;;;15.46;100.00
42105;BME280;68365;51.472;5.712;2023-04-01T08:06:19;99376.16;;;15.46;100.00
42105;BME280;68365;51.472;5.712;2023-04-01T08:11:41;99388.00;;;15.49;100.00
42105;BME280;68365;51.472;5.712;2023-04-01T08:17:07;99390.81;;;15.47;100.00
42105;BME280;68365;51.472;5.712;2023-04-01T08:22:41;99404.59;;;15.55;100.00
42105;BME280;68365;51.472;5.712;2023-04-01T08:25:19;99400.75;;;15.57;100.00
42105;BME280;68365;51.472;5.712;2023-04-01T08:27:56;99405.41;;;15.55;100.00
42105;BME280;68365;51.472;5.712;2023-04-01T08:33:47;99415.41;;;15.58;100.00
42105;BME280;68365;51.472;5.712;2023-04-01T08:36:20;99417.78;;;15.60;100.00
42105;BME280;68365;51.472;5.712;2023-04-01T08:50:53;99430.31;;;15.58;100.00
42105;BME280;68365;51.472;5.712;2023-04-01T08:56:29;99448.59;;;15.58;100.00
42105;BME280;68365;51.472;5.712;2023-04-01T08:59:22;99458.28;;;15.57;100.00
42105;BME280;68365;51.472;5.712;2023-04-01T09:05:12;99466.91;;;15.58;100.00
42105;BME280;68365;51.472;5.712;2023-04-01T09:10:32;99461.84;;;15.63;100.00
42105;BME280;68365;51.472;5.712;2023-04-01T09:28:53;99482.22;;;15.73;100.00
42105;BME280;68365;51.472;5.712;2023-04-01T09:31:53;99485.28;;;15.69;100.00
42105;BME280;68365;51.472;5.712;2023-04-01T09:40:18;99493.91;;;15.70;100.00
42105;BME280;68365;51.472;5.712;2023-04-01T09:46:26;99502.94;;;15.74;100.00
42105;BME280;68365;51.472;5.712;2023-04-01T09:55:19;99514.63;;;15.72;100.00
42105;BME280;68365;51.472;5.712;2023-04-01T10:06:38;99528.97;;;15.69;100.00
42105;BME280;68365;51.472;5.712;2023-04-01T10:17:38;99538.47;;;15.63;100.00
42105;BME280;68365;51.472;5.712;2023-04-01T10:48:01;99564.75;;;15.68;100.00
42105;BME280;68365;51.472;5.712;2023-04-01T11:27:06;99596.38;;;15.67;100.00
42105;BME280;68365;51.472;5.712;2023-04-01T11:35:46;99609.03;;;15.70;100.00
42105;BME280;68365;51.472;5.712;2023-04-01T11:41:32;99618.91;;;15.68;100.00
42105;BME280;68365;51.472;5.712;2023-04-01T11:44:50;99621.31;;;15.69;100.00
42105;BME280;68365;51.472;5.712;2023-04-01T11:47:44;99629.56;;;15.66;100.00
42105;BME280;68365;51.472;5.712;2023-04-01T11:59:18;99644.63;;;15.71;100.00
42105;BME280;68365;51.472;5.712;2023-04-01T12:03:15;99650.47;;;15.73;100.00
42105;BME280;68365;51.472;5.712;2023-04-01T12:05:34;99650.47;;;15.73;100.00
42105;BME280;68365;51.472;5.712;2023-04-01T12:08:53;99650.81;;;15.77;100.00
42105;BME280;68365;51.472;5.712;2023-04-01T12:19:53;99660.25;;;15.96;100.00
42105;BME280;68365;51.472;5.712;2023-04-01T12:35:13;99686.56;;;16.62;100.00
42105;BME280;68365;51.472;5.712;2023-04-01T12:44:37;99692.81;;;16.91;100.00
42105;BME280;68365;51.472;5.712;2023-04-01T12:50:19;99696.69;;;17.00;100.00
42105;BME280;68365;51.472;5.712;2023-04-01T12:55:49;99708.22;;;17.11;100.00
42105;BME280;68365;51.472;5.712;2023-04-01T13:09:49;99719.50;;;17.23;100.00
42105;BME280;68365;51.472;5.712;2023-04-01T13:26:34;99729.84;;;16.95;100.00
42105;BME280;68365;51.472;5.712;2023-04-01T13:29:25;99737.56;;;16.89;100.00
42105;BME280;68365;51.472;5.712;2023-04-01T13:32:29;99740.66;;;16.86;100.00
42105;BME280;68365;51.472;5.712;2023-04-01T13:35:53;99744.97;;;16.81;100.00
42105;BME280;68365;51.472;5.712;2023-04-01T13:56:16;99761.66;;;16.68;100.00
42105;BME280;68365;51.472;5.712;2023-04-01T14:01:54;99767.13;;;16.66;100.00
42105;BME280;68365;51.472;5.712;2023-04-01T14:07:56;99777.03;;;16.64;100.00
42105;BME280;68365;51.472;5.712;2023-04-01T14:13:59;99779.72;;;16.58;100.00
42105;BME280;68365;51.472;5.712;2023-04-01T14:22:38;99791.78;;;16.59;100.00
42105;BME280;68365;51.472;5.712;2023-04-01T14:31:41;99806.50;;;16.60;100.00
42105;BME280;68365;51.472;5.712;2023-04-01T14:37:29;99796.13;;;16.53;100.00
42105;BME280;68365;51.472;5.712;2023-04-01T14:49:37;99816.41;;;16.58;100.00
42105;BME280;68365;51.472;5.712;2023-04-01T14:52:28;99826.88;;;16.58;100.00
42105;BME280;68365;51.472;5.712;2023-04-01T14:54:56;99823.69;;;16.56;100.00
42105;BME280;68365;51.472;5.712;2023-04-01T14:57:30;99827.09;;;16.56;100.00
42105;BME280;68365;51.472;5.712;2023-04-01T15:00:12;99835.19;;;16.55;100.00
42105;BME280;68365;51.472;5.712;2023-04-01T15:03:01;99831.75;;;16.54;100.00
42105;BME280;68365;51.472;5.712;2023-04-01T15:05:54;99837.00;;;16.54;100.00
42105;BME280;68365;51.472;5.712;2023-04-01T15:08:36;99839.25;;;16.50;100.00
42105;BME280;68365;51.472;5.712;2023-04-01T15:11:48;99845.91;;;16.53;100.00
42105;BME280;68365;51.472;5.712;2023-04-01T15:25:50;99865.03;;;16.54;100.00
42105;BME280;68365;51.472;5.712;2023-04-01T15:28:52;99866.03;;;16.53;100.00
42105;BME280;68365;51.472;5.712;2023-04-01T15:31:41;99875.72;;;16.52;100.00
42105;BME280;68365;51.472;5.712;2023-04-01T15:34:37;99871.72;;;16.49;100.00
42105;BME280;68365;51.472;5.712;2023-04-01T15:37:30;99877.34;;;16.53;100.00
42105;BME280;68365;51.472;5.712;2023-04-01T15:40:32;99882.56;;;16.53;100.00
42105;BME280;68365;51.472;5.712;2023-04-01T15:43:37;99878.91;;;16.54;100.00
42105;BME280;68365;51.472;5.712;2023-04-01T15:46:41;99882.56;;;16.53;100.00
42105;BME280;68365;51.472;5.712;2023-04-01T15:49:43;99890.44;;;16.53;100.00
42105;BME280;68365;51.472;5.712;2023-04-01T15:52:23;99894.84;;;16.53;100.00
42105;BME280;68365;51.472;5.712;2023-04-01T15:55:39;99901.25;;;16.57;100.00
42105;BME280;68365;51.472;5.712;2023-04-01T15:58:40;99901.13;;;16.52;100.00
42105;BME280;68365;51.472;5.712;2023-04-01T16:01:18;99901.34;;;16.50;100.00
42105;BME280;68365;51.472;5.712;2023-04-01T16:10:09;99912.59;;;16.50;100.00
42105;BME280;68365;51.472;5.712;2023-04-01T16:18:59;99915.47;;;16.49;100.00
42105;BME280;68365;51.472;5.712;2023-04-01T16:21:46;99917.84;;;16.50;100.00
42105;BME280;68365;51.472;5.712;2023-04-01T16:24:43;99920.69;;;16.49;100.00
42105;BME280;68365;51.472;5.712;2023-04-01T16:39:09;99941.41;;;16.50;100.00
42105;BME280;68365;51.472;5.712;2023-04-01T16:47:49;99938.38;;;16.54;100.00
42105;BME280;68365;51.472;5.712;2023-04-01T16:50:24;99950.03;;;16.58;100.00
42105;BME280;68365;51.472;5.712;2023-04-01T16:53:17;99958.69;;;16.58;100.00
42105;BME280;68365;51.472;5.712;2023-04-01T16:58:36;99955.47;;;16.56;100.00
42105;BME280;68365;51.472;5.712;2023-04-01T17:03:46;99962.91;;;16.59;100.00
42105;BME280;68365;51.472;5.712;2023-04-01T17:06:45;99969.97;;;16.59;100.00
42105;BME280;68365;51.472;5.712;2023-04-01T17:09:38;99975.19;;;16.59;100.00
42105;BME280;68365;51.472;5.712;2023-04-01T17:12:47;99976.81;;;16.60;100.00
42105;BME280;68365;51.472;5.712;2023-04-01T17:15:57;99984.66;;;16.60;100.00
42105;BME280;68365;51.472;5.712;2023-04-01T17:18:38;99984.88;;;16.58;100.00
42105;BME280;68365;51.472;5.712;2023-04-01T17:33:02;100009.25;;;16.59;100.00
42105;BME280;68365;51.472;5.712;2023-04-01T17:35:39;100015.75;;;16.56;100.00
42105;BME280;68365;51.472;5.712;2023-04-01T17:44:37;100026.22;;;16.56;100.00
42105;BME280;68365;51.472;5.712;2023-04-01T17:47:13;100028.63;;;16.58;100.00
42105;BME280;68365;51.472;5.712;2023-04-01T17:50:28;100033.88;;;16.58;100.00
42105;BME280;68365;51.472;5.712;2023-04-01T18:04:18;100058.69;;;16.55;100.00
42105;BME280;68365;51.472;5.712;2023-04-01T18:09:49;100072.13;;;16.59;100.00
42105;BME280;68365;51.472;5.712;2023-04-01T18:13:05;100077.38;;;16.59;100.00
42105;BME280;68365;51.472;5.712;2023-04-01T18:22:19;100102.38;;;16.61;100.00
42105;BME280;68365;51.472;5.712;2023-04-01T18:24:40;100113.66;;;16.62;100.00
42105;BME280;68365;51.472;5.712;2023-04-01T18:32:57;100133.38;;;16.64;100.00
42105;BME280;68365;51.472;5.712;2023-04-01T18:38:34;100153.53;;;16.64;100.00
42105;BME280;68365;51.472;5.712;2023-04-01T18:49:59;100175.84;;;16.73;100.00
42105;BME280;68365;51.472;5.712;2023-04-01T18:52:43;100184.28;;;16.75;100.00
42105;BME280;68365;51.472;5.712;2023-04-01T18:55:29;100192.16;;;16.75;100.00
42105;BME280;68365;51.472;5.712;2023-04-01T19:01:19;100199.59;;;16.78;100.00
42105;BME280;68365;51.472;5.712;2023-04-01T19:06:56;100218.38;;;16.82;100.00
42105;BME280;68365;51.472;5.712;2023-04-01T19:09:51;100231.22;;;16.83;100.00
42105;BME280;68365;51.472;5.712;2023-04-01T19:12:53;100232.25;;;16.82;100.00
42105;BME280;68365;51.472;5.712;2023-04-01T19:15:49;100239.94;;;16.84;100.00
42105;BME280;68365;51.472;5.712;2023-04-01T19:27:50;100264.91;;;16.86;100.00
42105;BME280;68365;51.472;5.712;2023-04-01T19:37:08;100282.03;;;16.89;100.00
42105;BME280;68365;51.472;5.712;2023-04-01T19:40:17;100285.44;;;16.89;100.00
42105;BME280;68365;51.472;5.712;2023-04-01T19:50:58;100302.78;;;16.91;100.00
42105;BME280;68365;51.472;5.712;2023-04-01T19:56:22;100313.88;;;16.93;100.00
42105;BME280;68365;51.472;5.712;2023-04-01T20:02:15;100330.41;;;16.93;100.00
42105;BME280;68365;51.472;5.712;2023-04-01T20:04:53;100333.81;;;16.94;100.00
42105;BME280;68365;51.472;5.712;2023-04-01T20:07:42;100340.09;;;16.93;100.00
42105;BME280;68365;51.472;5.712;2023-04-01T20:13:01;100360.63;;;16.96;100.00
42105;BME280;68365;51.472;5.712;2023-04-01T20:15:45;100364.28;;;16.95;100.00
42105;BME280;68365;51.472;5.712;2023-04-01T20:18:23;100367.50;;;16.97;100.00
42105;BME280;68365;51.472;5.712;2023-04-01T20:23:50;100381.19;;;16.99;100.00
42105;BME280;68365;51.472;5.712;2023-04-01T20:26:35;100384.59;;;16.99;100.00
42105;BME280;68365;51.472;5.712;2023-04-01T20:32:43;100403.75;;;17.00;100.00
42105;BME280;68365;51.472;5.712;2023-04-01T20:38:28;100416.47;;;17.03;100.00
42105;BME280;68365;51.472;5.712;2023-04-01T20:44:31;100426.16;;;17.02;100.00
42105;BME280;68365;51.472;5.712;2023-04-01T20:53:58;100442.28;;;16.99;100.00
42105;BME280;68365;51.472;5.712;2023-04-01T20:56:14;100446.75;;;16.99;100.00
42105;BME280;68365;51.472;5.712;2023-04-01T21:02:19;100455.59;;;16.98;100.00
42105;BME280;68365;51.472;5.712;2023-04-01T21:08:48;100468.31;;;17.01;100.00
42105;BME280;68365;51.472;5.712;2023-04-01T21:16:47;100484.25;;;16.99;100.00
42105;BME280;68365;51.472;5.712;2023-04-01T21:22:10;100491.31;;;16.99;100.00
42105;BME280;68365;51.472;5.712;2023-04-01T21:42:11;100547.59;;;16.96;100.00
42105;BME280;68365;51.472;5.712;2023-04-01T21:45:09;100542.13;;;16.98;100.00
42105;BME280;68365;51.472;5.712;2023-04-01T21:50:45;100559.88;;;16.96;100.00
42105;BME280;68365;51.472;5.712;2023-04-01T21:54:07;100569.56;;;16.95;100.00
42105;BME280;68365;51.472;5.712;2023-04-01T22:05:42;100594.41;;;16.93;100.00
42105;BME280;68365;51.472;5.712;2023-04-01T22:14:15;100618.59;;;16.88;100.00
42105;BME280;68365;51.472;5.712;2023-04-01T22:28:09;100626.66;;;16.80;100.00
42105;BME280;68365;51.472;5.712;2023-04-01T22:30:54;100629.84;;;16.75;100.00
42105;BME280;68365;51.472;5.712;2023-04-01T22:37:12;100652.22;;;16.71;100.00
42105;BME280;68365;51.472;5.712;2023-04-01T22:51:10;100671.00;;;16.61;100.00
42105;BME280;68365;51.472;5.712;2023-04-01T22:54:05;100682.66;;;16.59;100.00
42105;BME280;68365;51.472;5.712;2023-04-01T22:56:39;100682.66;;;16.59;100.00
42105;BME280;68365;51.472;5.712;2023-04-01T22:59:31;100692.53;;;16.57;100.00
42105;BME280;68365;51.472;5.712;2023-04-01T23:02:25;100688.50;;;16.54;100.00
42105;BME280;68365;51.472;5.712;2023-04-01T23:05:00;100699.19;;;16.53;100.00
42105;BME280;68365;51.472;5.712;2023-04-01T23:07:55;100697.59;;;16.52;100.00
42105;BME280;68365;51.472;5.712;2023-04-01T23:13:16;100711.91;;;16.49;100.00
42105;BME280;68365;51.472;5.712;2023-04-01T23:15:44;100711.28;;;16.47;100.00
42105;BME280;68365;51.472;5.712;2023-04-01T23:21:38;100725.56;;;16.44;100.00
42105;BME280;68365;51.472;5.712;2023-04-01T23:24:22;100726.59;;;16.43;100.00
42105;BME280;68365;51.472;5.712;2023-04-01T23:29:48;100745.13;;;16.42;100.00
42105;BME280;68365;51.472;5.712;2023-04-01T23:32:19;100748.75;;;16.41;100.00